Time;durP1;ratioP1;P1;durP2;ratioP2;P2;SDS_P1;SDS_P2;PMS_P1;PMS_P2;Temp;Humidity;BMP_temperature;BMP_pressure;BME280_temperature;BME280_humidity;BME280_pressure;Samples;Min_cycle;Max_cycle;Signal;HPM_P1;HPM_P2
2023/07/20 00:01:53;;;;;;;9.32;6.65;;;;;;;17.37;80.65;101233.28;4968204;28;20053;-72
2023/07/20 00:04:20;;;;;;;8.68;6.90;;;;;;;17.34;81.17;101234.31;4970780;28;20376;-71
2023/07/20 00:06:47;;;;;;;13.23;6.82;;;;;;;17.32;80.96;101235.31;4964781;28;20507;-71
2023/07/20 00:09:14;;;;;;;10.15;6.55;;;;;;;17.31;81.08;101234.47;4967848;28;20417;-71
2023/07/20 00:11:50;;;;;;;8.60;6.10;;;;;;;17.31;81.34;101236.25;4967225;28;20160;-71
2023/07/20 00:14:18;;;;;;;10.65;6.40;;;;;;;17.30;81.53;101239.84;4965921;28;20097;-71
2023/07/20 00:16:46;;;;;;;11.20;6.55;;;;;;;17.32;81.90;101243.31;4966148;28;20555;-71
2023/07/20 00:19:13;;;;;;;9.15;6.18;;;;;;;17.33;81.69;101240.59;4967284;28;20616;-71
2023/07/20 00:21:42;;;;;;;8.48;6.55;;;;;;;17.36;81.79;101240.41;4963882;28;20085;-71
2023/07/20 00:24:09;;;;;;;9.75;6.50;;;;;;;17.35;81.46;101229.84;4963458;28;20339;-71
2023/07/20 00:26:36;;;;;;;8.52;6.32;;;;;;;17.35;81.87;101236.00;4966654;28;20503;-71
2023/07/20 00:29:04;;;;;;;8.93;6.32;;;;;;;17.32;81.97;101230.00;4969203;28;20126;-72
2023/07/20 00:31:31;;;;;;;9.50;6.88;;;;;;;17.29;82.05;101239.00;4961329;28;20125;-72
2023/07/20 00:33:58;;;;;;;9.00;7.13;;;;;;;17.26;82.84;101225.00;4965428;28;20642;-71
2023/07/20 00:36:25;;;;;;;9.65;6.70;;;;;;;17.27;83.05;101229.38;4962148;28;20049;-71
2023/07/20 00:38:52;;;;;;;9.63;7.00;;;;;;;17.27;83.66;101237.38;4967301;28;20491;-71
2023/07/20 00:41:19;;;;;;;9.88;7.05;;;;;;;17.18;84.52;101239.59;4980136;28;20042;-72
2023/07/20 00:43:46;;;;;;;15.57;7.90;;;;;;;17.03;87.12;101246.56;4964457;28;20047;-74
2023/07/20 00:46:14;;;;;;;15.82;8.68;;;;;;;16.76;87.67;101246.13;4997307;28;20042;-74
2023/07/20 00:48:42;;;;;;;14.50;9.35;;;;;;;16.54;89.68;101246.31;4981439;28;20039;-74
2023/07/20 00:51:10;;;;;;;13.02;8.65;;;;;;;16.36;91.31;101242.75;4964146;28;20062;-72
2023/07/20 00:53:38;;;;;;;15.05;10.10;;;;;;;16.19;91.43;101238.25;4963518;28;20042;-72
2023/07/20 00:56:07;;;;;;;15.52;10.48;;;;;;;16.10;92.04;101237.75;4965251;28;20053;-73
2023/07/20 00:58:36;;;;;;;13.65;10.43;;;;;;;16.06;93.55;101233.50;4964451;28;20105;-72
2023/07/20 01:01:03;;;;;;;16.20;10.98;;;;;;;15.98;93.75;101233.84;4962278;28;20042;-72
2023/07/20 01:03:30;;;;;;;16.08;12.00;;;;;;;15.95;94.07;101230.47;4964753;28;20121;-72
2023/07/20 01:06:14;;;;;;;16.70;11.50;;;;;;;15.95;94.64;101235.78;4996054;28;20049;-74
2023/07/20 01:09:08;;;;;;;;;;;;;;;15.93;95.09;101240.31;4964502;28;20500;-74
2023/07/20 01:12:24;;;;;;;14.63;10.57;;;;;;;15.92;95.61;101239.47;4964162;28;20426;-77
2023/07/20 01:14:51;;;;;;;18.08;11.07;;;;;;;15.92;96.12;101241.28;4963727;28;20287;-77
2023/07/20 01:17:18;;;;;;;16.77;11.65;;;;;;;15.91;96.36;101242.22;4965644;28;20089;-76
2023/07/20 01:19:45;;;;;;;17.85;12.02;;;;;;;15.89;97.00;101246.72;4966069;28;20046;-76
2023/07/20 01:22:54;;;;;;;19.52;12.95;;;;;;;15.86;97.39;101247.75;4963245;28;20054;-76
2023/07/20 01:26:11;;;;;;;23.98;14.35;;;;;;;15.80;97.74;101243.53;4976818;28;20050;-73
2023/07/20 01:29:13;;;;;;;19.83;14.35;;;;;;;15.81;98.28;101247.03;4960077;28;20046;-73
2023/07/20 01:31:43;;;;;;;21.67;14.77;;;;;;;15.83;99.51;101242.53;4974694;28;20051;-73
2023/07/20 01:34:17;;;;;;;19.20;13.55;;;;;;;15.79;99.28;101246.25;4966767;28;20177;-74
2023/07/20 01:36:48;;;;;;;19.17;14.20;;;;;;;15.76;99.57;101233.97;4963366;28;20452;-74
2023/07/20 01:39:16;;;;;;;21.15;15.32;;;;;;;15.75;99.90;101242.84;4978581;28;20046;-73
2023/07/20 01:41:45;;;;;;;22.13;15.68;;;;;;;15.77;100.00;101245.47;4965961;28;20125;-74
2023/07/20 01:44:13;;;;;;;28.08;17.63;;;;;;;15.79;100.00;101247.13;4962674;28;20050;-74
2023/07/20 01:46:40;;;;;;;25.02;17.25;;;;;;;15.82;100.00;101236.31;4981598;28;20055;-74
2023/07/20 01:49:07;;;;;;;25.65;17.13;;;;;;;15.90;100.00;101240.47;4970276;28;20053;-74
2023/07/20 01:51:34;;;;;;;25.75;16.85;;;;;;;15.89;100.00;101239.59;4968997;28;20054;-73
2023/07/20 01:54:01;;;;;;;31.00;18.20;;;;;;;15.89;100.00;101238.75;4968443;28;20472;-73
2023/07/20 01:56:29;;;;;;;28.58;16.95;;;;;;;15.88;100.00;101239.69;4982207;28;20516;-74
2023/07/20 01:58:56;;;;;;;27.52;17.67;;;;;;;15.88;100.00;101237.03;4979113;28;20046;-74
2023/07/20 02:01:23;;;;;;;26.88;18.40;;;;;;;15.82;100.00;101244.28;4982295;28;20039;-74
2023/07/20 02:03:50;;;;;;;26.90;17.88;;;;;;;15.81;100.00;101247.03;4957253;28;20162;-73
2023/07/20 02:06:17;;;;;;;33.25;18.63;;;;;;;15.78;100.00;101247.16;4966764;28;20097;-73
2023/07/20 02:08:44;;;;;;;30.08;18.80;;;;;;;15.73;100.00;101247.38;4975833;28;20060;-73
2023/07/20 02:11:11;;;;;;;27.02;18.25;;;;;;;15.71;100.00;101251.03;4952563;28;20442;-73
2023/07/20 02:13:39;;;;;;;24.00;15.73;;;;;;;15.69;100.00;101256.44;4977475;28;20045;-73
2023/07/20 02:16:06;;;;;;;24.45;16.05;;;;;;;15.65;100.00;101258.38;4963518;28;20046;-74
2023/07/20 02:18:33;;;;;;;25.67;15.30;;;;;;;15.66;100.00;101253.91;4983557;28;20078;-74
2023/07/20 02:21:00;;;;;;;24.00;15.43;;;;;;;15.68;100.00;101254.72;4982088;28;20569;-74
2023/07/20 02:23:27;;;;;;;26.42;16.85;;;;;;;15.67;100.00;101256.50;4981812;28;20495;-74
2023/07/20 02:25:54;;;;;;;25.23;15.60;;;;;;;15.67;100.00;101245.84;4966621;28;20050;-73
2023/07/20 02:28:23;;;;;;;21.42;13.48;;;;;;;15.67;100.00;101255.66;4962431;28;20051;-72
2023/07/20 02:30:50;;;;;;;21.55;14.43;;;;;;;15.65;100.00;101254.84;4961874;28;20517;-73
2023/07/20 02:33:17;;;;;;;24.02;14.35;;;;;;;15.62;100.00;101263.81;4967723;28;20049;-73
2023/07/20 02:35:44;;;;;;;18.27;13.18;;;;;;;15.61;100.00;101258.59;4968513;28;20445;-72
2023/07/20 02:38:11;;;;;;;17.75;11.55;;;;;;;15.61;100.00;101255.94;4981614;28;20118;-73
2023/07/20 02:40:38;;;;;;;18.33;12.40;;;;;;;15.59;100.00;101255.13;4967169;28;20047;-73
2023/07/20 02:43:06;;;;;;;18.45;12.38;;;;;;;15.58;100.00;101262.22;4999470;28;20077;-73
2023/07/20 02:45:33;;;;;;;17.65;12.75;;;;;;;15.58;100.00;101258.72;4965998;28;20427;-73
2023/07/20 02:48:01;;;;;;;17.92;12.68;;;;;;;15.56;100.00;101260.56;4964518;28;20089;-73
2023/07/20 02:50:28;;;;;;;19.15;12.05;;;;;;;15.50;100.00;101262.59;4967571;28;20058;-72
2023/07/20 02:52:55;;;;;;;19.05;12.50;;;;;;;15.47;100.00;101267.16;4966775;28;20050;-73
2023/07/20 02:55:22;;;;;;;20.48;12.70;;;;;;;15.48;100.00;101272.41;4968250;28;20058;-72
2023/07/20 02:57:50;;;;;;;14.70;11.18;;;;;;;15.46;100.00;101274.25;4966458;28;20504;-73
2023/07/20 03:00:19;;;;;;;14.55;10.57;;;;;;;15.43;100.00;101274.38;4966705;28;20039;-71
2023/07/20 03:02:52;;;;;;;18.48;11.80;;;;;;;15.35;100.00;101274.75;4967945;28;20050;-71
2023/07/20 03:05:20;;;;;;;15.35;11.95;;;;;;;15.31;100.00;101278.47;4968127;28;20113;-72
2023/07/20 03:07:47;;;;;;;16.30;11.95;;;;;;;15.29;100.00;101277.66;4964309;28;20098;-71
2023/07/20 03:10:14;;;;;;;19.48;12.35;;;;;;;15.27;100.00;101279.50;4965104;28;20050;-71
2023/07/20 03:12:42;;;;;;;16.73;11.02;;;;;;;15.27;100.00;101287.47;4967573;28;20036;-72
2023/07/20 03:15:10;;;;;;;16.45;11.35;;;;;;;15.22;100.00;101286.81;4966766;28;20046;-71
2023/07/20 03:17:37;;;;;;;14.13;10.70;;;;;;;15.16;100.00;101284.44;4980976;28;20047;-71
2023/07/20 03:20:09;;;;;;;16.98;11.50;;;;;;;15.13;100.00;101289.88;4966065;28;20500;-72
2023/07/20 03:22:36;;;;;;;17.70;11.68;;;;;;;15.08;100.00;101295.38;5000269;28;20070;-72
2023/07/20 03:25:04;;;;;;;19.20;11.73;;;;;;;15.09;100.00;101301.53;4968422;28;20562;-72
2023/07/20 03:27:32;;;;;;;14.13;10.35;;;;;;;15.13;100.00;101308.47;4983419;28;20057;-71
2023/07/20 03:30:00;;;;;;;15.60;10.60;;;;;;;15.14;100.00;101300.41;4997386;28;20066;-72
2023/07/20 03:32:28;;;;;;;13.13;10.13;;;;;;;15.16;100.00;101308.34;4994933;28;20043;-71
2023/07/20 03:34:55;;;;;;;13.40;9.75;;;;;;;15.18;100.00;101310.00;4967614;28;20058;-71
2023/07/20 03:37:22;;;;;;;13.70;9.40;;;;;;;15.20;100.00;101316.13;4969008;28;20254;-72
2023/07/20 03:39:49;;;;;;;11.75;8.65;;;;;;;15.19;100.00;101310.84;4992986;28;20046;-71
2023/07/20 03:42:16;;;;;;;12.35;9.50;;;;;;;15.15;100.00;101310.13;4961928;28;20046;-72
2023/07/20 03:44:44;;;;;;;12.32;8.60;;;;;;;15.14;100.00;101312.84;4996478;28;20086;-72
2023/07/20 03:47:11;;;;;;;10.10;8.43;;;;;;;15.10;100.00;101313.88;4967353;28;20074;-73
2023/07/20 03:49:38;;;;;;;10.95;8.35;;;;;;;15.06;100.00;101324.63;4966283;28;20043;-75
2023/07/20 03:52:06;;;;;;;11.48;8.98;;;;;;;14.97;100.00;101313.53;4967217;28;20411;-74
2023/07/20 03:54:33;;;;;;;13.93;9.43;;;;;;;14.93;100.00;101311.94;4964774;28;20046;-74
2023/07/20 03:57:00;;;;;;;15.77;10.82;;;;;;;14.92;100.00;101321.69;4967608;28;20069;-73
2023/07/20 03:59:27;;;;;;;14.70;10.45;;;;;;;14.91;100.00;101327.94;4983667;28;20051;-74
2023/07/20 04:01:55;;;;;;;13.82;10.15;;;;;;;14.88;100.00;101323.63;4967515;28;20070;-75
2023/07/20 04:04:22;;;;;;;13.43;9.63;;;;;;;14.87;100.00;101332.50;4982653;28;20484;-75
2023/07/20 04:06:49;;;;;;;12.02;9.75;;;;;;;14.83;100.00;101330.88;4968208;28;20050;-74
2023/07/20 04:09:16;;;;;;;11.93;9.77;;;;;;;14.81;100.00;101324.78;4967813;28;20152;-73
2023/07/20 04:11:43;;;;;;;14.15;9.68;;;;;;;14.82;100.00;101337.13;4964917;28;20460;-74
2023/07/20 04:14:10;;;;;;;13.85;9.57;;;;;;;14.80;100.00;101333.69;4965583;28;20515;-74
2023/07/20 04:16:37;;;;;;;13.60;10.57;;;;;;;14.83;100.00;101330.88;4967077;28;20512;-74
2023/07/20 04:19:04;;;;;;;14.07;10.10;;;;;;;14.85;100.00;101329.03;4968494;28;20125;-73
2023/07/20 04:21:32;;;;;;;14.88;10.77;;;;;;;14.85;100.00;101321.09;4963754;28;20118;-74
2023/07/20 04:23:59;;;;;;;14.07;10.50;;;;;;;14.86;100.00;101324.59;4964262;28;20042;-75
2023/07/20 04:26:26;;;;;;;13.38;9.38;;;;;;;14.86;100.00;101329.91;4980893;28;20038;-74
2023/07/20 04:28:53;;;;;;;13.18;9.52;;;;;;;14.88;100.00;101322.75;4967858;28;20039;-74
2023/07/20 04:31:33;;;;;;;12.82;9.93;;;;;;;14.91;100.00;101331.44;4993995;28;20042;-73
2023/07/20 04:34:01;;;;;;;14.85;9.60;;;;;;;14.96;100.00;101335.72;4977902;28;20050;-74
2023/07/20 04:36:28;;;;;;;13.75;9.25;;;;;;;15.02;100.00;101340.75;4964531;28;20045;-72
2023/07/20 04:38:56;;;;;;;14.55;9.63;;;;;;;15.06;100.00;101332.59;4998834;28;20141;-73
2023/07/20 04:41:24;;;;;;;11.13;9.52;;;;;;;15.14;100.00;101337.59;4992499;28;20038;-73
2023/07/20 04:43:54;;;;;;;10.50;8.98;;;;;;;15.22;100.00;101339.94;4962490;28;20302;-71
2023/07/20 04:46:27;;;;;;;10.43;8.15;;;;;;;15.23;100.00;101331.03;4991268;28;20346;-74
2023/07/20 04:48:55;;;;;;;13.02;8.43;;;;;;;15.24;100.00;101334.56;4997992;28;20061;-74
2023/07/20 04:51:23;;;;;;;10.15;8.45;;;;;;;15.27;100.00;101331.78;4964110;28;20066;-73
2023/07/20 04:53:54;;;;;;;12.07;7.55;;;;;;;15.45;100.00;101336.31;4964305;28;20049;-72
2023/07/20 04:56:23;;;;;;;10.60;8.13;;;;;;;16.06;100.00;101336.34;4981813;28;20042;-73
2023/07/20 04:58:51;;;;;;;10.30;7.40;;;;;;;16.43;99.81;101346.13;4979136;28;20039;-73
2023/07/20 05:01:19;;;;;;;10.50;7.20;;;;;;;16.40;98.88;101345.41;4964534;28;20050;-74
2023/07/20 05:03:46;;;;;;;8.23;6.38;;;;;;;16.53;97.28;101337.75;4997388;28;20050;-73
2023/07/20 05:06:14;;;;;;;9.77;6.88;;;;;;;16.93;95.84;101335.81;4951877;28;20043;-72
2023/07/20 05:08:41;;;;;;;7.30;6.50;;;;;;;16.74;95.72;101342.00;4979275;28;20049;-70
2023/07/20 05:11:08;;;;;;;8.30;6.43;;;;;;;16.57;96.56;101339.31;4964095;28;20412;-70
2023/07/20 05:13:36;;;;;;;8.30;6.47;;;;;;;16.52;96.45;101338.69;4961719;28;20038;-70
2023/07/20 05:16:04;;;;;;;8.18;6.43;;;;;;;16.55;96.45;101338.50;4966570;28;20030;-72
2023/07/20 05:18:32;;;;;;;10.25;6.35;;;;;;;16.81;96.28;101342.59;4996480;28;20043;-72
2023/07/20 05:21:00;;;;;;;7.18;5.97;;;;;;;17.03;96.35;101347.78;4964874;28;20046;-72
2023/07/20 05:23:27;;;;;;;7.65;6.15;;;;;;;17.34;95.99;101345.34;4966386;28;20049;-72
2023/07/20 05:25:59;;;;;;;6.18;5.38;;;;;;;18.74;90.41;101350.34;4963387;28;20046;-72
2023/07/20 05:28:27;;;;;;;5.85;5.25;;;;;;;20.06;83.04;101345.31;4967342;28;20325;-72
2023/07/20 05:30:55;;;;;;;7.72;5.03;;;;;;;19.74;84.47;101341.94;4968886;28;20137;-72
2023/07/20 05:33:23;;;;;;;5.65;5.05;;;;;;;19.05;85.67;101353.13;4960571;28;20046;-72
2023/07/20 05:35:50;;;;;;;6.22;5.40;;;;;;;19.11;85.91;101354.56;4964808;28;20046;-72
2023/07/20 05:38:17;;;;;;;6.28;4.72;;;;;;;18.55;87.81;101358.56;4976935;28;20683;-72
2023/07/20 05:40:45;;;;;;;5.50;4.10;;;;;;;18.24;88.06;101356.69;4962799;28;20045;-72
2023/07/20 05:43:13;;;;;;;4.68;4.28;;;;;;;18.88;85.94;101367.41;4972368;28;20042;-72
2023/07/20 05:45:45;;;;;;;4.75;3.95;;;;;;;19.35;83.32;101360.28;4966208;28;20070;-72
2023/07/20 05:48:12;;;;;;;4.72;3.97;;;;;;;19.46;81.34;101368.53;4967754;28;20105;-72
2023/07/20 05:50:43;;;;;;;4.90;3.42;;;;;;;19.03;81.90;101373.72;4968026;28;20125;-72
2023/07/20 05:53:11;;;;;;;4.28;3.88;;;;;;;18.75;82.14;101367.25;4964881;28;20156;-72
2023/07/20 05:55:39;;;;;;;6.72;3.80;;;;;;;18.37;83.71;101371.09;4963464;28;20050;-72
2023/07/20 05:58:07;;;;;;;8.85;4.47;;;;;;;18.12;85.17;101368.91;4963083;28;20125;-71
2023/07/20 06:00:34;;;;;;;5.75;4.30;;;;;;;18.39;83.96;101371.88;4961884;28;20061;-72
2023/07/20 06:03:01;;;;;;;5.22;4.18;;;;;;;19.44;81.23;101372.22;4964598;28;20041;-72
2023/07/20 06:05:30;;;;;;;5.20;4.35;;;;;;;20.56;78.29;101363.63;4963540;28;20547;-72
2023/07/20 06:07:58;;;;;;;4.30;3.83;;;;;;;22.61;72.49;101356.88;4966059;28;20043;-72
2023/07/20 06:10:26;;;;;;;4.50;3.10;;;;;;;24.28;67.03;101362.16;4964851;28;20628;-72
2023/07/20 06:12:55;;;;;;;5.32;3.22;;;;;;;25.45;61.98;101368.81;4964041;28;20504;-73
2023/07/20 06:15:32;;;;;;;4.45;3.00;;;;;;;26.01;56.99;101373.84;4964402;28;20547;-72
2023/07/20 06:18:00;;;;;;;6.45;2.78;;;;;;;24.91;56.84;101366.97;4961440;28;20444;-72
2023/07/20 06:20:27;;;;;;;4.85;2.78;;;;;;;23.07;63.61;101375.91;4965024;28;20046;-73
2023/07/20 06:22:55;;;;;;;3.15;2.50;;;;;;;21.76;66.04;101378.97;4988841;28;20045;-72
2023/07/20 06:25:22;;;;;;;4.43;2.67;;;;;;;20.71;69.66;101380.53;4966558;28;20650;-71
2023/07/20 06:27:51;;;;;;;5.10;2.90;;;;;;;20.01;71.92;101385.75;4968118;28;20043;-73
2023/07/20 06:30:19;;;;;;;4.53;2.70;;;;;;;19.51;72.84;101395.84;4962911;28;20073;-71
2023/07/20 06:32:46;;;;;;;3.95;3.28;;;;;;;19.12;75.23;101401.72;4962297;28;20084;-73
2023/07/20 06:35:15;;;;;;;3.55;2.67;;;;;;;18.88;76.57;101402.97;4963536;28;20043;-71
2023/07/20 06:37:42;;;;;;;5.15;3.42;;;;;;;18.73;78.42;101407.38;4967906;28;20534;-73
2023/07/20 06:40:09;;;;;;;4.50;3.08;;;;;;;18.63;78.95;101407.03;4964836;28;20051;-73
2023/07/20 06:42:39;;;;;;;3.10;2.80;;;;;;;18.45;77.80;101392.03;4966006;28;20416;-72
2023/07/20 06:45:10;;;;;;;5.57;2.80;;;;;;;18.25;78.75;101393.09;4966436;28;20113;-71
2023/07/20 06:47:42;;;;;;;3.75;3.03;;;;;;;18.03;79.22;101394.25;4954125;28;20039;-71
2023/07/20 06:50:10;;;;;;;2.78;2.42;;;;;;;17.79;79.41;101388.38;4966406;28;20055;-72
2023/07/20 06:52:47;;;;;;;3.22;2.75;;;;;;;17.58;80.10;101395.69;4966936;28;20043;-70
2023/07/20 06:55:18;;;;;;;;;;;;;;;17.43;82.28;101400.00;4969041;28;20054;-70
2023/07/20 06:57:51;;;;;;;3.65;3.05;;;;;;;17.32;82.86;101389.88;4968875;28;20386;-70
2023/07/20 07:00:19;;;;;;;3.67;3.17;;;;;;;17.20;83.70;101402.00;4967629;28;20051;-71
2023/07/20 07:02:46;;;;;;;5.97;2.58;;;;;;;17.09;83.66;101399.88;4967170;28;20133;-71
2023/07/20 07:05:18;;;;;;;3.22;2.50;;;;;;;16.99;83.86;101410.09;4968875;28;20487;-71
2023/07/20 07:07:48;;;;;;;4.47;2.80;;;;;;;16.95;84.18;101411.19;4968388;28;20066;-71
2023/07/20 07:10:16;;;;;;;5.93;3.00;;;;;;;17.09;85.01;101410.53;4969287;28;20051;-72
2023/07/20 07:12:43;;;;;;;4.82;2.97;;;;;;;17.31;84.59;101397.00;4977152;28;20046;-72
2023/07/20 07:15:13;;;;;;;3.55;3.10;;;;;;;17.43;85.47;101408.00;4967813;28;20109;-72
2023/07/20 07:17:40;;;;;;;7.15;3.10;;;;;;;17.50;86.33;101407.59;4967478;28;20460;-72
2023/07/20 07:20:08;;;;;;;4.47;3.05;;;;;;;17.59;86.30;101410.75;4967007;28;20129;-71
2023/07/20 07:22:47;;;;;;;2.95;2.28;;;;;;;17.55;85.60;101407.34;4969365;28;20450;-71
2023/07/20 07:25:15;;;;;;;8.25;2.50;;;;;;;17.52;85.80;101416.38;4967915;28;20125;-71
2023/07/20 07:27:49;;;;;;;5.85;2.17;;;;;;;17.54;85.54;101409.16;4965758;28;20053;-71
2023/07/20 07:30:17;;;;;;;2.90;2.00;;;;;;;17.57;86.15;101418.81;4960484;28;20129;-71
2023/07/20 07:32:44;;;;;;;3.30;1.95;;;;;;;17.80;85.58;101416.78;4966610;28;20271;-71
2023/07/20 07:35:11;;;;;;;7.05;1.85;;;;;;;18.03;83.13;101404.94;4963317;28;20049;-72
2023/07/20 07:37:38;;;;;;;5.05;1.75;;;;;;;18.26;82.75;101416.19;4966037;28;20538;-72
2023/07/20 07:40:18;;;;;;;3.45;1.45;;;;;;;18.40;80.06;101410.09;4964395;28;20141;-72
2023/07/20 07:42:45;;;;;;;2.33;1.33;;;;;;;18.54;81.31;101414.69;4965795;28;20046;-72
2023/07/20 07:45:13;;;;;;;2.28;1.10;;;;;;;18.78;80.36;101415.13;4965429;28;20129;-71
2023/07/20 07:47:40;;;;;;;1.98;1.10;;;;;;;19.01;77.45;101413.00;4964900;28;20039;-71
2023/07/20 07:50:09;;;;;;;2.45;1.50;;;;;;;18.97;76.80;101422.16;4962172;28;20046;-71
2023/07/20 07:52:36;;;;;;;3.55;1.23;;;;;;;18.87;78.11;101417.28;4965763;28;20059;-71
2023/07/20 07:55:05;;;;;;;6.68;1.25;;;;;;;18.78;78.93;101426.69;4966545;28;20062;-71
2023/07/20 07:57:33;;;;;;;2.63;1.00;;;;;;;18.72;78.20;101424.34;4981397;28;20574;-71
2023/07/20 08:00:01;;;;;;;2.15;1.17;;;;;;;18.61;76.52;101430.28;4966689;28;20368;-72
2023/07/20 08:02:30;;;;;;;4.13;0.90;;;;;;;18.50;77.58;101435.34;4964374;28;20125;-72
2023/07/20 08:04:58;;;;;;;4.38;1.30;;;;;;;18.45;78.55;101434.75;4963403;28;20484;-71
2023/07/20 08:07:25;;;;;;;2.45;0.90;;;;;;;18.39;78.38;101438.63;4962235;28;20594;-71
2023/07/20 08:09:52;;;;;;;3.72;0.85;;;;;;;18.28;77.40;101433.84;4964814;28;20054;-72
2023/07/20 08:12:20;;;;;;;3.03;1.00;;;;;;;18.18;77.42;101440.59;4965513;28;20047;-72
2023/07/20 08:14:47;;;;;;;2.33;1.00;;;;;;;18.08;77.45;101442.03;4964106;28;20400;-72
2023/07/20 08:17:14;;;;;;;3.55;1.00;;;;;;;18.02;78.74;101439.69;4971789;28;20038;-72
2023/07/20 08:19:44;;;;;;;11.63;1.42;;;;;;;18.02;79.23;101448.53;4965161;28;20054;-72
2023/07/20 08:22:12;;;;;;;6.03;1.30;;;;;;;18.02;79.37;101448.53;4966098;28;20169;-71
2023/07/20 08:24:40;;;;;;;4.03;0.88;;;;;;;18.02;79.57;101453.03;4966177;28;20447;-72
2023/07/20 08:27:08;;;;;;;2.25;1.00;;;;;;;17.99;79.49;101452.25;4965007;28;20043;-71
2023/07/20 08:29:37;;;;;;;2.05;0.98;;;;;;;18.17;80.04;101452.22;4965863;28;20397;-71
2023/07/20 08:32:06;;;;;;;2.58;0.90;;;;;;;18.46;80.56;101449.81;4967281;28;20053;-71
2023/07/20 08:34:33;;;;;;;2.63;0.80;;;;;;;18.76;79.38;101451.75;4965067;28;20045;-72
2023/07/20 08:37:00;;;;;;;1.52;0.50;;;;;;;19.00;74.16;101448.69;4959586;28;20121;-72
2023/07/20 08:39:27;;;;;;;2.30;0.60;;;;;;;19.23;75.34;101450.91;4968088;28;20130;-73
2023/07/20 08:41:56;;;;;;;1.67;0.50;;;;;;;19.53;73.96;101452.75;4966088;28;20050;-72
2023/07/20 08:44:25;;;;;;;1.23;0.60;;;;;;;19.79;72.08;101445.00;4967148;28;20113;-73
2023/07/20 08:46:53;;;;;;;2.55;0.60;;;;;;;20.09;69.45;101446.84;4967109;28;20492;-73
2023/07/20 08:49:21;;;;;;;3.78;1.17;;;;;;;20.33;68.38;101448.94;4974235;28;20054;-73
2023/07/20 08:51:48;;;;;;;4.70;1.08;;;;;;;20.51;66.67;101441.56;4966973;28;20051;-73
2023/07/20 08:54:16;;;;;;;3.80;0.80;;;;;;;20.75;64.65;101441.03;4964605;28;20074;-73
2023/07/20 08:56:46;;;;;;;2.50;0.82;;;;;;;20.86;64.92;101443.84;4977592;28;20045;-73
2023/07/20 08:59:17;;;;;;;2.05;0.70;;;;;;;20.94;67.42;101446.03;4970616;28;20070;-73
2023/07/20 09:01:46;;;;;;;3.53;0.75;;;;;;;21.01;65.46;101444.66;4980240;28;20046;-72
2023/07/20 09:04:13;;;;;;;1.67;0.60;;;;;;;21.12;60.72;101440.44;4964357;28;20124;-72
2023/07/20 09:06:40;;;;;;;1.02;0.57;;;;;;;21.14;60.52;101435.84;4966867;28;20499;-72
2023/07/20 09:09:11;;;;;;;1.48;0.80;;;;;;;21.29;63.66;101426.78;4965316;28;20050;-72
2023/07/20 09:11:40;;;;;;;3.33;0.70;;;;;;;21.54;63.82;101433.16;4957860;28;20054;-72
2023/07/20 09:14:10;;;;;;;1.83;0.60;;;;;;;21.73;61.86;101430.16;4966504;28;20035;-72
2023/07/20 09:16:54;;;;;;;1.90;0.70;;;;;;;21.77;58.57;101430.78;4973919;28;20551;-73
2023/07/20 09:19:22;;;;;;;1.30;0.73;;;;;;;21.72;59.72;101426.59;4978799;28;20487;-73
2023/07/20 09:21:52;;;;;;;2.53;1.00;;;;;;;21.74;58.30;101431.00;4967114;28;20499;-73
2023/07/20 09:24:20;;;;;;;1.50;0.90;;;;;;;21.66;59.16;101431.53;4966709;28;20047;-73
2023/07/20 09:26:50;;;;;;;2.60;0.90;;;;;;;21.36;59.54;101425.41;4966476;28;20061;-73
2023/07/20 09:29:19;;;;;;;3.95;1.10;;;;;;;21.10;59.14;101435.19;4963626;28;20130;-72
2023/07/20 09:32:04;;;;;;;2.20;0.73;;;;;;;20.85;60.57;101433.25;4965054;28;20042;-73
2023/07/20 09:34:32;;;;;;;2.30;0.60;;;;;;;20.59;62.11;101425.03;4968185;28;20051;-73
2023/07/20 09:37:02;;;;;;;2.38;0.55;;;;;;;20.68;62.65;101421.75;4965900;28;20538;-72
2023/07/20 09:39:30;;;;;;;1.83;0.80;;;;;;;20.83;62.71;101424.44;4965073;28;20042;-73
2023/07/20 09:42:02;;;;;;;0.63;0.50;;;;;;;21.02;62.88;101419.59;4965877;28;20067;-72
2023/07/20 09:44:32;;;;;;;2.33;0.80;;;;;;;21.31;63.32;101424.88;4965677;28;20713;-72
2023/07/20 09:47:04;;;;;;;1.52;0.70;;;;;;;21.55;62.33;101418.81;4964299;28;20102;-72
2023/07/20 09:49:32;;;;;;;2.45;0.80;;;;;;;21.64;60.48;101409.31;4970455;28;20477;-72
2023/07/20 09:52:20;;;;;;;3.03;0.52;;;;;;;21.74;61.40;101412.22;4962584;28;20065;-73
2023/07/20 09:54:51;;;;;;;2.30;0.52;;;;;;;21.93;57.74;101417.19;4964523;28;20125;-73
2023/07/20 09:57:21;;;;;;;4.20;0.80;;;;;;;22.08;58.37;101413.41;4965749;28;20201;-73
2023/07/20 09:59:48;;;;;;;0.70;0.40;;;;;;;22.27;54.40;101402.22;4966277;28;20121;-73
2023/07/20 10:02:25;;;;;;;0.68;0.50;;;;;;;22.34;54.11;101408.88;4962730;28;20051;-75
2023/07/20 10:04:55;;;;;;;1.67;0.55;;;;;;;22.36;55.13;101402.53;4956309;28;20042;-75
2023/07/20 10:07:27;;;;;;;0.50;0.40;;;;;;;22.43;54.26;101398.50;4966038;28;20046;-73
2023/07/20 10:09:59;;;;;;;1.40;0.50;;;;;;;22.61;54.40;101407.03;4966382;28;20180;-74
2023/07/20 10:12:28;;;;;;;0.95;0.50;;;;;;;22.65;55.77;101403.16;4967812;28;20059;-73
2023/07/20 10:15:21;;;;;;;1.17;0.43;;;;;;;22.61;53.28;101410.59;4969156;28;20051;-73
2023/07/20 10:18:02;;;;;;;2.00;0.40;;;;;;;22.50;53.11;101407.81;4968646;28;20458;-73
2023/07/20 10:20:36;;;;;;;1.98;0.57;;;;;;;22.30;54.15;101407.41;4965089;28;20106;-72
2023/07/20 10:23:04;;;;;;;1.00;0.30;;;;;;;22.19;55.21;101409.97;4972052;28;20039;-73
2023/07/20 10:25:37;;;;;;;0.85;0.38;;;;;;;22.08;53.25;101412.56;4970656;28;20078;-73
2023/07/20 10:28:08;;;;;;;0.52;0.30;;;;;;;21.96;53.02;101406.22;4967990;28;20042;-73
2023/07/20 10:30:36;;;;;;;7.30;1.00;;;;;;;21.80;52.62;101409.13;4967282;28;20051;-73
2023/07/20 10:33:05;;;;;;;1.30;0.70;;;;;;;21.64;52.37;101401.25;4968958;28;20050;-73
2023/07/20 10:35:52;;;;;;;1.90;0.88;;;;;;;21.41;53.19;101407.22;4965946;28;20038;-73
2023/07/20 10:38:20;;;;;;;3.60;0.80;;;;;;;21.28;54.72;101403.63;4968319;28;20046;-73
2023/07/20 10:40:56;;;;;;;7.68;1.17;;;;;;;21.21;55.99;101399.63;4969287;28;20053;-73
2023/07/20 10:43:25;;;;;;;2.60;0.80;;;;;;;21.17;54.11;101404.31;4968167;28;20114;-73
2023/07/20 10:45:53;;;;;;;2.92;0.70;;;;;;;21.15;55.24;101410.75;4966464;28;20050;-73
2023/07/20 10:48:22;;;;;;;5.22;0.70;;;;;;;21.28;56.31;101402.75;4974000;28;20046;-73
2023/07/20 10:51:22;;;;;;;1.17;0.60;;;;;;;21.51;55.38;101401.22;4965722;28;20451;-72
2023/07/20 10:53:50;;;;;;;1.77;0.80;;;;;;;21.68;55.81;101397.38;4970550;28;20058;-72
2023/07/20 10:56:23;;;;;;;2.50;0.82;;;;;;;22.22;54.40;101392.78;4966448;28;20109;-72
2023/07/20 10:58:58;;;;;;;3.60;0.90;;;;;;;22.52;52.77;101383.53;4966405;28;20042;-72
2023/07/20 11:01:31;;;;;;;4.40;1.10;;;;;;;22.93;50.73;101390.38;4968902;28;20540;-72
2023/07/20 11:04:00;;;;;;;2.45;0.90;;;;;;;23.06;51.87;101387.63;4969164;28;20054;-72
2023/07/20 11:06:27;;;;;;;6.38;1.20;;;;;;;23.36;51.19;101391.69;4965713;28;20126;-71
2023/07/20 11:09:14;;;;;;;2.15;0.93;;;;;;;23.62;50.78;101383.47;4963587;28;20043;-72
2023/07/20 11:11:46;;;;;;;4.57;1.00;;;;;;;23.83;51.67;101389.00;4964235;28;20051;-71
2023/07/20 11:14:21;;;;;;;1.95;0.85;;;;;;;23.97;49.78;101386.13;4961728;28;20117;-72
2023/07/20 11:16:51;;;;;;;2.92;0.80;;;;;;;23.99;48.67;101376.09;4966026;28;20046;-71
2023/07/20 11:19:23;;;;;;;2.13;1.10;;;;;;;24.03;47.24;101380.25;4963496;28;20240;-72
2023/07/20 11:21:58;;;;;;;1.63;0.70;;;;;;;24.16;45.97;101373.91;4965338;28;20070;-72
2023/07/20 11:24:31;;;;;;;1.02;0.70;;;;;;;24.16;47.81;101371.19;4968215;28;20150;-72
2023/07/20 11:27:01;;;;;;;0.93;0.68;;;;;;;24.14;46.95;101370.47;4965201;28;20117;-72
2023/07/20 11:29:28;;;;;;;2.33;0.80;;;;;;;23.96;48.66;101370.13;4966786;28;20050;-71
2023/07/20 11:32:01;;;;;;;3.47;0.85;;;;;;;23.91;48.32;101369.56;4968544;28;20415;-73